sensor_id;sensor_type;location;lat;lon;timestamp;pressure;altitude;pressure_sealevel;temperature;humidity
55679;BME280;41573;51.446;-2.018;2022-12-18T00:27:15;100929.56;;;-0.02;100.00
55679;BME280;41573;51.446;-2.018;2022-12-18T00:32:20;100942.69;;;-0.04;100.00
55679;BME280;41573;51.446;-2.018;2022-12-18T00:34:53;100934.88;;;-0.07;100.00
55679;BME280;41573;51.446;-2.018;2022-12-18T00:39:55;100926.16;;;-0.10;100.00
55679;BME280;41573;51.446;-2.018;2022-12-18T00:42:57;100935.69;;;-0.05;100.00
55679;BME280;41573;51.446;-2.018;2022-12-18T00:45:45;100929.56;;;-0.02;100.00
55679;BME280;41573;51.446;-2.018;2022-12-18T00:48:56;100927.78;;;0.03;100.00
55679;BME280;41573;51.446;-2.018;2022-12-18T00:51:23;100925.19;;;0.00;100.00
55679;BME280;41573;51.446;-2.018;2022-12-18T00:53:54;100912.09;;;0.00;100.00
55679;BME280;41573;51.446;-2.018;2022-12-18T00:56:20;100907.75;;;-0.03;100.00
55679;BME280;41573;51.446;-2.018;2022-12-18T00:58:45;100910.38;;;-0.01;100.00
55679;BME280;41573;51.446;-2.018;2022-12-18T01:01:30;100919.00;;;0.04;100.00
55679;BME280;41573;51.446;-2.018;2022-12-18T01:04:18;100914.66;;;0.05;100.00
55679;BME280;41573;51.446;-2.018;2022-12-18T01:06:50;100914.63;;;0.08;100.00
55679;BME280;41573;51.446;-2.018;2022-12-18T01:09:16;100909.41;;;0.06;100.00
55679;BME280;41573;51.446;-2.018;2022-12-18T01:11:41;100916.34;;;0.10;100.00
55679;BME280;41573;51.446;-2.018;2022-12-18T01:14:07;100911.97;;;0.09;100.00
55679;BME280;41573;51.446;-2.018;2022-12-18T01:16:36;100918.06;;;0.10;100.00
55679;BME280;41573;51.446;-2.018;2022-12-18T01:19:01;100921.63;;;0.07;100.00
55679;BME280;41573;51.446;-2.018;2022-12-18T01:21:27;100913.75;;;0.09;100.00
55679;BME280;41573;51.446;-2.018;2022-12-18T01:23:56;100913.75;;;0.09;100.00
55679;BME280;41573;51.446;-2.018;2022-12-18T01:26:24;100922.53;;;0.03;100.00
55679;BME280;41573;51.446;-2.018;2022-12-18T02:12:25;100946.03;;;0.09;100.00
55679;BME280;41573;51.446;-2.018;2022-12-18T02:26:59;100926.75;;;0.15;100.00
55679;BME280;41573;51.446;-2.018;2022-12-18T03:04:22;100907.28;;;0.36;100.00
55679;BME280;41573;51.446;-2.018;2022-12-18T03:06:57;100906.41;;;0.39;100.00
55679;BME280;41573;51.446;-2.018;2022-12-18T03:09:36;100904.63;;;0.39;100.00
55679;BME280;41573;51.446;-2.018;2022-12-18T03:12:16;100892.41;;;0.38;100.00
55679;BME280;41573;51.446;-2.018;2022-12-18T03:15:00;100890.66;;;0.40;100.00
55679;BME280;41573;51.446;-2.018;2022-12-18T03:20:42;100883.63;;;0.42;100.00
55679;BME280;41573;51.446;-2.018;2022-12-18T03:25:54;100878.31;;;0.48;100.00
55679;BME280;41573;51.446;-2.018;2022-12-18T03:32:17;100886.97;;;0.54;100.00
55679;BME280;41573;51.446;-2.018;2022-12-18T03:37:53;100877.16;;;0.66;100.00
55679;BME280;41573;51.446;-2.018;2022-12-18T03:40:21;100870.97;;;0.72;100.00
55679;BME280;41573;51.446;-2.018;2022-12-18T03:43:08;100858.78;;;0.69;100.00
55679;BME280;41573;51.446;-2.018;2022-12-18T03:45:39;100855.25;;;0.72;100.00
55679;BME280;41573;51.446;-2.018;2022-12-18T03:48:37;100867.41;;;0.76;100.00
55679;BME280;41573;51.446;-2.018;2022-12-18T03:51:23;100852.53;;;0.78;100.00
55679;BME280;41573;51.446;-2.018;2022-12-18T03:56:59;100841.19;;;0.76;100.00
55679;BME280;41573;51.446;-2.018;2022-12-18T03:59:27;100828.91;;;0.81;100.00
55679;BME280;41573;51.446;-2.018;2022-12-18T04:01:55;100819.25;;;0.82;100.00
55679;BME280;41573;51.446;-2.018;2022-12-18T04:04:23;100823.53;;;0.88;100.00
55679;BME280;41573;51.446;-2.018;2022-12-18T04:07:00;100818.25;;;0.91;100.00
55679;BME280;41573;51.446;-2.018;2022-12-18T04:09:25;100807.75;;;0.91;100.00
55679;BME280;41573;51.446;-2.018;2022-12-18T04:11:52;100803.38;;;0.93;100.00
55679;BME280;41573;51.446;-2.018;2022-12-18T04:14:18;100803.38;;;0.93;100.00
55679;BME280;41573;51.446;-2.018;2022-12-18T04:16:43;100796.31;;;0.95;100.00
55679;BME280;41573;51.446;-2.018;2022-12-18T04:19:09;100781.47;;;0.94;100.00
55679;BME280;41573;51.446;-2.018;2022-12-18T04:21:34;100780.50;;;1.01;100.00
55679;BME280;41573;51.446;-2.018;2022-12-18T04:23:59;100765.66;;;1.00;100.00
55679;BME280;41573;51.446;-2.018;2022-12-18T04:26:25;100756.81;;;1.06;100.00
55679;BME280;41573;51.446;-2.018;2022-12-18T04:28:50;100752.34;;;1.09;100.00
55679;BME280;41573;51.446;-2.018;2022-12-18T04:31:16;100747.03;;;1.12;100.00
55679;BME280;41573;51.446;-2.018;2022-12-18T04:33:41;100752.22;;;1.17;100.00
55679;BME280;41573;51.446;-2.018;2022-12-18T04:36:07;100738.22;;;1.16;100.00
55679;BME280;41573;51.446;-2.018;2022-12-18T04:38:32;100725.94;;;1.20;100.00
55679;BME280;41573;51.446;-2.018;2022-12-18T04:40:58;100728.44;;;1.25;100.00
55679;BME280;41573;51.446;-2.018;2022-12-18T04:43:23;100724.97;;;1.24;100.00
55679;BME280;41573;51.446;-2.018;2022-12-18T04:45:49;100721.47;;;1.24;100.00
55679;BME280;41573;51.446;-2.018;2022-12-18T04:48:32;100716.31;;;1.19;100.00
55679;BME280;41573;51.446;-2.018;2022-12-18T04:53:56;100717.28;;;1.15;100.00
55679;BME280;41573;51.446;-2.018;2022-12-18T04:56:22;100705.09;;;1.11;100.00
55679;BME280;41573;51.446;-2.018;2022-12-18T04:58:48;100691.94;;;1.12;100.00
55679;BME280;41573;51.446;-2.018;2022-12-18T05:01:15;100685.00;;;1.11;100.00
55679;BME280;41573;51.446;-2.018;2022-12-18T05:03:42;100685.75;;;1.16;100.00
55679;BME280;41573;51.446;-2.018;2022-12-18T05:06:07;100682.34;;;1.13;100.00
55679;BME280;41573;51.446;-2.018;2022-12-18T05:08:34;100678.84;;;1.12;100.00
55679;BME280;41573;51.446;-2.018;2022-12-18T05:11:07;100670.19;;;1.09;100.00
55679;BME280;41573;51.446;-2.018;2022-12-18T05:13:34;100672.75;;;1.12;100.00
55679;BME280;41573;51.446;-2.018;2022-12-18T05:16:00;100672.63;;;1.16;100.00
55679;BME280;41573;51.446;-2.018;2022-12-18T05:18:26;100667.44;;;1.15;100.00
55679;BME280;41573;51.446;-2.018;2022-12-18T05:20:52;100660.44;;;1.15;100.00
55679;BME280;41573;51.446;-2.018;2022-12-18T05:23:19;100642.91;;;1.17;100.00
55679;BME280;41573;51.446;-2.018;2022-12-18T05:25:57;100636.88;;;1.14;100.00
55679;BME280;41573;51.446;-2.018;2022-12-18T05:28:24;100646.41;;;1.16;100.00
55679;BME280;41573;51.446;-2.018;2022-12-18T05:30:53;100638.63;;;1.12;100.00
55679;BME280;41573;51.446;-2.018;2022-12-18T05:33:20;100629.97;;;1.08;100.00
55679;BME280;41573;51.446;-2.018;2022-12-18T05:35:56;100633.47;;;1.09;100.00
55679;BME280;41573;51.446;-2.018;2022-12-18T05:38:24;100620.38;;;1.07;100.00
55679;BME280;41573;51.446;-2.018;2022-12-18T05:40:50;100612.59;;;1.04;100.00
55679;BME280;41573;51.446;-2.018;2022-12-18T05:43:18;100609.06;;;1.03;100.00
55679;BME280;41573;51.446;-2.018;2022-12-18T05:45:44;100601.19;;;1.03;100.00
55679;BME280;41573;51.446;-2.018;2022-12-18T05:48:11;100592.41;;;1.06;100.00
55679;BME280;41573;51.446;-2.018;2022-12-18T05:50:38;100589.78;;;1.06;100.00
55679;BME280;41573;51.446;-2.018;2022-12-18T05:53:05;100590.63;;;1.08;100.00
55679;BME280;41573;51.446;-2.018;2022-12-18T05:55:35;100580.22;;;1.03;100.00
55679;BME280;41573;51.446;-2.018;2022-12-18T05:58:03;100569.75;;;1.02;100.00
55679;BME280;41573;51.446;-2.018;2022-12-18T06:00:32;100564.44;;;1.05;100.00
55679;BME280;41573;51.446;-2.018;2022-12-18T06:03:02;100562.59;;;1.10;100.00
55679;BME280;41573;51.446;-2.018;2022-12-18T06:05:28;100573.09;;;1.10;100.00
55679;BME280;41573;51.446;-2.018;2022-12-18T06:07:54;100563.38;;;1.15;100.00
55679;BME280;41573;51.446;-2.018;2022-12-18T06:10:20;100567.66;;;1.19;100.00
55679;BME280;41573;51.446;-2.018;2022-12-18T06:12:46;100564.19;;;1.17;100.00
55679;BME280;41573;51.446;-2.018;2022-12-18T06:15:11;100558.88;;;1.20;100.00
55679;BME280;41573;51.446;-2.018;2022-12-18T06:17:37;100562.34;;;1.23;100.00
55679;BME280;41573;51.446;-2.018;2022-12-18T06:20:04;100571.84;;;1.28;100.00
55679;BME280;41573;51.446;-2.018;2022-12-18T06:22:33;100575.25;;;1.32;100.00
55679;BME280;41573;51.446;-2.018;2022-12-18T06:24:58;100574.50;;;1.27;100.00
55679;BME280;41573;51.446;-2.018;2022-12-18T06:27:27;100569.19;;;1.30;100.00
55679;BME280;41573;51.446;-2.018;2022-12-18T06:29:52;100559.53;;;1.30;100.00
55679;BME280;41573;51.446;-2.018;2022-12-18T06:32:18;100563.09;;;1.28;100.00
55679;BME280;41573;51.446;-2.018;2022-12-18T06:34:44;100560.44;;;1.31;100.00
55679;BME280;41573;51.446;-2.018;2022-12-18T06:37:10;100556.00;;;1.33;100.00
55679;BME280;41573;51.446;-2.018;2022-12-18T06:39:49;100537.63;;;1.33;100.00
55679;BME280;41573;51.446;-2.018;2022-12-18T06:42:15;100538.56;;;1.30;100.00
55679;BME280;41573;51.446;-2.018;2022-12-18T06:44:41;100550.63;;;1.37;100.00
55679;BME280;41573;51.446;-2.018;2022-12-18T06:47:06;100526.97;;;1.39;100.00
55679;BME280;41573;51.446;-2.018;2022-12-18T06:49:32;100540.78;;;1.47;100.00
55679;BME280;41573;51.446;-2.018;2022-12-18T06:51:57;100542.44;;;1.51;100.00
55679;BME280;41573;51.446;-2.018;2022-12-18T06:54:23;100561.66;;;1.52;100.00
55679;BME280;41573;51.446;-2.018;2022-12-18T06:56:48;100558.97;;;1.57;100.00
55679;BME280;41573;51.446;-2.018;2022-12-18T06:59:14;100578.06;;;1.62;100.00
55679;BME280;41573;51.446;-2.018;2022-12-18T07:01:41;100562.31;;;1.62;100.00
55679;BME280;41573;51.446;-2.018;2022-12-18T07:04:07;100552.75;;;1.61;100.00
55679;BME280;41573;51.446;-2.018;2022-12-18T07:06:32;100541.31;;;1.62;100.00
55679;BME280;41573;51.446;-2.018;2022-12-18T07:08:57;100546.44;;;1.68;100.00
55679;BME280;41573;51.446;-2.018;2022-12-18T07:11:23;100546.50;;;1.65;100.00
55679;BME280;41573;51.446;-2.018;2022-12-18T07:13:49;100549.19;;;1.62;100.00
55679;BME280;41573;51.446;-2.018;2022-12-18T07:16:17;100551.88;;;1.60;100.00
55679;BME280;41573;51.446;-2.018;2022-12-18T07:18:43;100552.66;;;1.64;100.00
55679;BME280;41573;51.446;-2.018;2022-12-18T07:21:12;100569.41;;;1.58;100.00
55679;BME280;41573;51.446;-2.018;2022-12-18T07:23:38;100572.81;;;1.62;100.00
55679;BME280;41573;51.446;-2.018;2022-12-18T07:26:06;100565.03;;;1.59;100.00
55679;BME280;41573;51.446;-2.018;2022-12-18T07:28:33;100560.63;;;1.59;100.00
55679;BME280;41573;51.446;-2.018;2022-12-18T07:31:03;100566.75;;;1.60;100.00
55679;BME280;41573;51.446;-2.018;2022-12-18T07:33:29;100565.91;;;1.58;100.00
55679;BME280;41573;51.446;-2.018;2022-12-18T07:35:55;100559.88;;;1.54;100.00
55679;BME280;41573;51.446;-2.018;2022-12-18T07:38:22;100551.16;;;1.52;100.00
55679;BME280;41573;51.446;-2.018;2022-12-18T07:40:48;100555.44;;;1.56;100.00
55679;BME280;41573;51.446;-2.018;2022-12-18T07:43:13;100552.06;;;1.52;100.00
55679;BME280;41573;51.446;-2.018;2022-12-18T07:45:39;100558.19;;;1.51;100.00
55679;BME280;41573;51.446;-2.018;2022-12-18T07:48:05;100566.03;;;1.53;100.00
55679;BME280;41573;51.446;-2.018;2022-12-18T07:50:30;100560.00;;;1.49;100.00
55679;BME280;41573;51.446;-2.018;2022-12-18T07:52:56;100561.72;;;1.50;100.00
55679;BME280;41573;51.446;-2.018;2022-12-18T07:55:21;100580.94;;;1.52;100.00
55679;BME280;41573;51.446;-2.018;2022-12-18T07:57:47;100570.50;;;1.49;100.00
55679;BME280;41573;51.446;-2.018;2022-12-18T08:00:15;100574.72;;;1.57;100.00
55679;BME280;41573;51.446;-2.018;2022-12-18T08:02:41;100568.69;;;1.51;100.00
55679;BME280;41573;51.446;-2.018;2022-12-18T08:05:07;100569.59;;;1.50;100.00
55679;BME280;41573;51.446;-2.018;2022-12-18T08:07:33;100579.94;;;1.58;100.00
55679;BME280;41573;51.446;-2.018;2022-12-18T08:09:58;100584.28;;;1.58;100.00
55679;BME280;41573;51.446;-2.018;2022-12-18T08:12:24;100572.91;;;1.59;100.00
55679;BME280;41573;51.446;-2.018;2022-12-18T08:14:49;100572.94;;;1.57;100.00
55679;BME280;41573;51.446;-2.018;2022-12-18T08:17:14;100572.09;;;1.57;100.00
55679;BME280;41573;51.446;-2.018;2022-12-18T08:19:40;100579.94;;;1.58;100.00
55679;BME280;41573;51.446;-2.018;2022-12-18T08:22:05;100572.91;;;1.59;100.00
55679;BME280;41573;51.446;-2.018;2022-12-18T08:24:31;100591.28;;;1.59;100.00
55679;BME280;41573;51.446;-2.018;2022-12-18T08:26:56;100565.19;;;1.52;100.00
55679;BME280;41573;51.446;-2.018;2022-12-18T08:29:22;100573.88;;;1.54;100.00
55679;BME280;41573;51.446;-2.018;2022-12-18T08:31:47;100581.69;;;1.56;100.00
55679;BME280;41573;51.446;-2.018;2022-12-18T08:34:13;100596.69;;;1.52;100.00
55679;BME280;41573;51.446;-2.018;2022-12-18T08:36:38;100591.34;;;1.55;100.00
55679;BME280;41573;51.446;-2.018;2022-12-18T08:39:04;100593.97;;;1.55;100.00
55679;BME280;41573;51.446;-2.018;2022-12-18T08:41:29;100586.19;;;1.52;100.00
55679;BME280;41573;51.446;-2.018;2022-12-18T08:43:55;100583.44;;;1.57;100.00
55679;BME280;41573;51.446;-2.018;2022-12-18T08:46:41;100587.78;;;1.58;100.00
55679;BME280;41573;51.446;-2.018;2022-12-18T08:49:08;100581.63;;;1.61;100.00
55679;BME280;41573;51.446;-2.018;2022-12-18T08:55:21;100584.38;;;1.54;100.00
55679;BME280;41573;51.446;-2.018;2022-12-18T08:57:50;100574.88;;;1.49;100.00
55679;BME280;41573;51.446;-2.018;2022-12-18T09:00:15;100574.97;;;1.44;100.00
55679;BME280;41573;51.446;-2.018;2022-12-18T09:02:41;100580.38;;;1.38;100.00
55679;BME280;41573;51.446;-2.018;2022-12-18T09:05:06;100574.31;;;1.34;100.00
55679;BME280;41573;51.446;-2.018;2022-12-18T09:07:32;100569.03;;;1.36;100.00
55679;BME280;41573;51.446;-2.018;2022-12-18T09:09:58;100563.78;;;1.36;100.00
55679;BME280;41573;51.446;-2.018;2022-12-18T09:12:23;100552.56;;;1.31;100.00
55679;BME280;41573;51.446;-2.018;2022-12-18T09:14:49;100548.16;;;1.31;100.00
55679;BME280;41573;51.446;-2.018;2022-12-18T09:17:14;100532.34;;;1.34;100.00
55679;BME280;41573;51.446;-2.018;2022-12-18T09:19:39;100524.50;;;1.33;100.00
55679;BME280;41573;51.446;-2.018;2022-12-18T09:22:05;100532.31;;;1.36;100.00
55679;BME280;41573;51.446;-2.018;2022-12-18T09:24:30;100555.88;;;1.37;100.00
55679;BME280;41573;51.446;-2.018;2022-12-18T09:26:56;100553.22;;;1.39;100.00
55679;BME280;41573;51.446;-2.018;2022-12-18T09:29:21;100562.75;;;1.43;100.00
55679;BME280;41573;51.446;-2.018;2022-12-18T09:31:47;100547.91;;;1.42;100.00
55679;BME280;41573;51.446;-2.018;2022-12-18T09:34:12;100555.69;;;1.47;100.00
55679;BME280;41573;51.446;-2.018;2022-12-18T09:36:38;100551.28;;;1.47;100.00
55679;BME280;41573;51.446;-2.018;2022-12-18T09:39:04;100544.31;;;1.46;100.00
55679;BME280;41573;51.446;-2.018;2022-12-18T09:41:52;100552.94;;;1.51;100.00
55679;BME280;41573;51.446;-2.018;2022-12-18T09:44:32;100543.25;;;1.55;100.00
55679;BME280;41573;51.446;-2.018;2022-12-18T09:49:45;100558.00;;;1.61;100.00
55679;BME280;41573;51.446;-2.018;2022-12-18T09:52:59;100546.56;;;1.62;100.00
55679;BME280;41573;51.446;-2.018;2022-12-18T09:57:28;100529.78;;;1.69;100.00
55679;BME280;41573;51.446;-2.018;2022-12-18T10:00:03;100537.50;;;1.75;100.00
55679;BME280;41573;51.446;-2.018;2022-12-18T10:02:30;100550.56;;;1.78;100.00
55679;BME280;41573;51.446;-2.018;2022-12-18T10:13:11;100551.22;;;1.88;100.00
55679;BME280;41573;51.446;-2.018;2022-12-18T10:16:08;100552.06;;;1.88;100.00
55679;BME280;41573;51.446;-2.018;2022-12-18T10:18:46;100546.81;;;1.88;100.00
55679;BME280;41573;51.446;-2.018;2022-12-18T10:21:21;100540.75;;;1.86;100.00
55679;BME280;41573;51.446;-2.018;2022-12-18T10:23:53;100543.28;;;1.89;100.00
55679;BME280;41573;51.446;-2.018;2022-12-18T10:26:22;100535.38;;;1.91;100.00
55679;BME280;41573;51.446;-2.018;2022-12-18T10:28:48;100537.06;;;1.94;100.00
55679;BME280;41573;51.446;-2.018;2022-12-18T10:34:04;100528.06;;;2.02;100.00
55679;BME280;41573;51.446;-2.018;2022-12-18T10:36:29;100507.81;;;2.06;100.00
55679;BME280;41573;51.446;-2.018;2022-12-18T10:39:17;100507.69;;;2.12;100.00
55679;BME280;41573;51.446;-2.018;2022-12-18T10:45:28;100490.00;;;2.17;100.00
55679;BME280;41573;51.446;-2.018;2022-12-18T10:51:08;100468.94;;;2.20;100.00
55679;BME280;41573;51.446;-2.018;2022-12-18T10:53:56;100464.44;;;2.24;100.00
55679;BME280;41573;51.446;-2.018;2022-12-18T10:56:28;100454.81;;;2.23;100.00
55679;BME280;41573;51.446;-2.018;2022-12-18T10:59:08;100436.38;;;2.26;100.00
55679;BME280;41573;51.446;-2.018;2022-12-18T11:01:53;100424.94;;;2.27;100.00
55679;BME280;41573;51.446;-2.018;2022-12-18T11:04:30;100409.31;;;2.22;100.00
55679;BME280;41573;51.446;-2.018;2022-12-18T11:07:02;100411.75;;;2.29;100.00
55679;BME280;41573;51.446;-2.018;2022-12-18T11:09:31;100411.59;;;2.35;100.00
55679;BME280;41573;51.446;-2.018;2022-12-18T11:11:59;100400.25;;;2.33;100.00
55679;BME280;41573;51.446;-2.018;2022-12-18T11:14:33;100392.25;;;2.37;100.00
55679;BME280;41573;51.446;-2.018;2022-12-18T11:17:00;100393.91;;;2.40;100.00
55679;BME280;41573;51.446;-2.018;2022-12-18T11:19:39;100384.06;;;2.47;100.00
55679;BME280;41573;51.446;-2.018;2022-12-18T11:22:25;100375.16;;;2.52;100.00
55679;BME280;41573;51.446;-2.018;2022-12-18T11:25:04;100366.25;;;2.56;100.00
55679;BME280;41573;51.446;-2.018;2022-12-18T11:27:31;100372.41;;;2.55;100.00
55679;BME280;41573;51.446;-2.018;2022-12-18T11:30:30;100368.75;;;2.61;100.00
55679;BME280;41573;51.446;-2.018;2022-12-18T11:33:05;100365.97;;;2.66;100.00
55679;BME280;41573;51.446;-2.018;2022-12-18T11:38:09;100347.56;;;2.66;100.00
55679;BME280;41573;51.446;-2.018;2022-12-18T11:40:36;100346.56;;;2.70;100.00
55679;BME280;41573;51.446;-2.018;2022-12-18T11:43:13;100322.72;;;2.76;100.00
55679;BME280;41573;51.446;-2.018;2022-12-18T11:45:48;100319.19;;;2.75;100.00
55679;BME280;41573;51.446;-2.018;2022-12-18T11:51:28;100302.41;;;2.80;100.00
55679;BME280;41573;51.446;-2.018;2022-12-18T11:53:58;100292.84;;;2.77;100.00
55679;BME280;41573;51.446;-2.018;2022-12-18T11:56:36;100294.38;;;2.84;100.00
55679;BME280;41573;51.446;-2.018;2022-12-18T12:01:54;100282.94;;;2.85;100.00
55679;BME280;41573;51.446;-2.018;2022-12-18T12:10:01;100282.66;;;2.95;100.00
55679;BME280;41573;51.446;-2.018;2022-12-18T12:21:10;100249.34;;;2.93;100.00
55679;BME280;41573;51.446;-2.018;2022-12-18T12:50:45;100181.81;;;3.19;100.00
55679;BME280;41573;51.446;-2.018;2022-12-18T12:53:21;100178.09;;;3.25;100.00
55679;BME280;41573;51.446;-2.018;2022-12-18T12:55:47;100175.53;;;3.23;100.00
55679;BME280;41573;51.446;-2.018;2022-12-18T12:58:34;100173.28;;;3.36;100.00
55679;BME280;41573;51.446;-2.018;2022-12-18T13:03:46;100178.28;;;3.44;100.00
55679;BME280;41573;51.446;-2.018;2022-12-18T13:09:22;100175.31;;;3.53;100.00
55679;BME280;41573;51.446;-2.018;2022-12-18T13:11:48;100177.81;;;3.56;100.00
55679;BME280;41573;51.446;-2.018;2022-12-18T13:14:38;100168.03;;;3.60;100.00
55679;BME280;41573;51.446;-2.018;2022-12-18T13:20:13;100169.44;;;3.69;100.00
55679;BME280;41573;51.446;-2.018;2022-12-18T13:22:48;100149.97;;;3.73;100.00
55679;BME280;41573;51.446;-2.018;2022-12-18T13:25:46;100140.94;;;3.80;100.00
55679;BME280;41573;51.446;-2.018;2022-12-18T13:28:14;100146.00;;;3.85;100.00
55679;BME280;41573;51.446;-2.018;2022-12-18T13:31:06;100140.44;;;3.92;100.00
55679;BME280;41573;51.446;-2.018;2022-12-18T13:36:10;100137.31;;;4.05;100.00
55679;BME280;41573;51.446;-2.018;2022-12-18T13:38:42;100137.97;;;4.10;100.00
55679;BME280;41573;51.446;-2.018;2022-12-18T13:43:42;100114.75;;;4.20;100.00
55679;BME280;41573;51.446;-2.018;2022-12-18T13:46:19;100115.16;;;4.31;100.00
55679;BME280;41573;51.446;-2.018;2022-12-18T13:49:16;100106.31;;;4.32;100.00
55679;BME280;41573;51.446;-2.018;2022-12-18T13:51:52;100095.59;;;4.37;100.00
55679;BME280;41573;51.446;-2.018;2022-12-18T13:54:40;100093.53;;;4.43;100.00
55679;BME280;41573;51.446;-2.018;2022-12-18T13:59:55;100080.03;;;4.51;100.00
55679;BME280;41573;51.446;-2.018;2022-12-18T14:02:25;100067.63;;;4.53;100.00
55679;BME280;41573;51.446;-2.018;2022-12-18T14:08:15;100071.59;;;4.63;100.00
55679;BME280;41573;51.446;-2.018;2022-12-18T14:10:50;100052.19;;;4.64;100.00
55679;BME280;41573;51.446;-2.018;2022-12-18T14:13:38;100049.31;;;4.71;100.00
55679;BME280;41573;51.446;-2.018;2022-12-18T14:16:07;100038.81;;;4.69;100.00
55679;BME280;41573;51.446;-2.018;2022-12-18T14:18:48;100050.75;;;4.78;100.00
55679;BME280;41573;51.446;-2.018;2022-12-18T14:21:23;100052.03;;;4.88;100.00
55679;BME280;41573;51.446;-2.018;2022-12-18T14:24:23;100030.91;;;4.88;100.00
55679;BME280;41573;51.446;-2.018;2022-12-18T14:26:49;100037.47;;;4.98;100.00
55679;BME280;41573;51.446;-2.018;2022-12-18T14:29:27;100029.94;;;5.10;100.00
55679;BME280;41573;51.446;-2.018;2022-12-18T14:32:23;100034.78;;;5.19;100.00
55679;BME280;41573;51.446;-2.018;2022-12-18T14:34:50;100032.78;;;5.24;100.00
55679;BME280;41573;51.446;-2.018;2022-12-18T14:37:20;100030.03;;;5.27;100.00
55679;BME280;41573;51.446;-2.018;2022-12-18T14:40:12;100030.47;;;5.35;100.00
55679;BME280;41573;51.446;-2.018;2022-12-18T14:42:38;100019.78;;;5.39;100.00
55679;BME280;41573;51.446;-2.018;2022-12-18T14:45:32;100037.00;;;5.47;100.00
55679;BME280;41573;51.446;-2.018;2022-12-18T14:47:59;100024.63;;;5.48;100.00
55679;BME280;41573;51.446;-2.018;2022-12-18T14:50:25;100044.31;;;5.60;100.00
55679;BME280;41573;51.446;-2.018;2022-12-18T14:52:51;100030.75;;;5.67;100.00
55679;BME280;41573;51.446;-2.018;2022-12-18T14:55:18;100029.75;;;5.70;100.00
55679;BME280;41573;51.446;-2.018;2022-12-18T14:57:44;100031.16;;;5.77;100.00
55679;BME280;41573;51.446;-2.018;2022-12-18T15:00:19;100026.28;;;5.87;100.00
55679;BME280;41573;51.446;-2.018;2022-12-18T15:03:12;100031.22;;;5.93;100.00
55679;BME280;41573;51.446;-2.018;2022-12-18T15:05:43;100038.13;;;5.97;100.00
55679;BME280;41573;51.446;-2.018;2022-12-18T15:08:29;100025.50;;;6.02;100.00
55679;BME280;41573;51.446;-2.018;2022-12-18T15:10:54;100033.34;;;6.04;100.00
55679;BME280;41573;51.446;-2.018;2022-12-18T15:13:23;100041.91;;;6.09;100.00
55679;BME280;41573;51.446;-2.018;2022-12-18T15:15:50;100031.09;;;6.14;100.00
55679;BME280;41573;51.446;-2.018;2022-12-18T15:18:18;100035.31;;;6.18;100.00
55679;BME280;41573;51.446;-2.018;2022-12-18T15:23:36;100028.00;;;6.23;100.00
55679;BME280;41573;51.446;-2.018;2022-12-18T15:28:44;100020.53;;;6.31;100.00
55679;BME280;41573;51.446;-2.018;2022-12-18T15:36:22;100021.78;;;6.42;100.00
55679;BME280;41573;51.446;-2.018;2022-12-18T15:38:49;100017.31;;;6.42;100.00
55679;BME280;41573;51.446;-2.018;2022-12-18T15:41:18;100024.09;;;6.48;100.00
55679;BME280;41573;51.446;-2.018;2022-12-18T15:43:45;100015.31;;;6.47;100.00
55679;BME280;41573;51.446;-2.018;2022-12-18T15:46:15;100024.53;;;6.56;100.00
55679;BME280;41573;51.446;-2.018;2022-12-18T15:48:44;100016.44;;;6.59;100.00
55679;BME280;41573;51.446;-2.018;2022-12-18T15:51:34;100010.13;;;6.62;100.00
55679;BME280;41573;51.446;-2.018;2022-12-18T15:54:05;100003.84;;;6.64;100.00
55679;BME280;41573;51.446;-2.018;2022-12-18T15:56:34;100008.34;;;6.62;100.00
55679;BME280;41573;51.446;-2.018;2022-12-18T15:59:19;100002.19;;;6.62;100.00
55679;BME280;41573;51.446;-2.018;2022-12-18T16:01:50;100003.03;;;6.62;100.00
55679;BME280;41573;51.446;-2.018;2022-12-18T16:04:17;99994.19;;;6.63;100.00
55679;BME280;41573;51.446;-2.018;2022-12-18T16:06:45;99978.56;;;6.59;100.00
55679;BME280;41573;51.446;-2.018;2022-12-18T16:09:11;99971.84;;;6.69;100.00
55679;BME280;41573;51.446;-2.018;2022-12-18T16:11:37;99975.31;;;6.69;100.00
55679;BME280;41573;51.446;-2.018;2022-12-18T16:16:48;99981.22;;;6.75;100.00
55679;BME280;41573;51.446;-2.018;2022-12-18T16:19:14;99965.34;;;6.75;100.00
55679;BME280;41573;51.446;-2.018;2022-12-18T16:21:39;99972.09;;;6.80;100.00
55679;BME280;41573;51.446;-2.018;2022-12-18T16:24:05;99983.53;;;6.81;100.00
55679;BME280;41573;51.446;-2.018;2022-12-18T16:26:38;99960.69;;;6.80;100.00
55679;BME280;41573;51.446;-2.018;2022-12-18T16:29:04;99956.22;;;6.80;100.00
55679;BME280;41573;51.446;-2.018;2022-12-18T16:31:29;99950.00;;;6.81;100.00
55679;BME280;41573;51.446;-2.018;2022-12-18T16:34:18;99948.91;;;6.85;100.00
55679;BME280;41573;51.446;-2.018;2022-12-18T16:36:49;99947.88;;;6.88;100.00
55679;BME280;41573;51.446;-2.018;2022-12-18T16:39:16;99955.13;;;6.84;100.00
55679;BME280;41573;51.446;-2.018;2022-12-18T16:41:41;99949.56;;;6.89;100.00
55679;BME280;41573;51.446;-2.018;2022-12-18T16:44:07;99939.59;;;6.94;100.00
55679;BME280;41573;51.446;-2.018;2022-12-18T16:46:33;99938.41;;;7.00;100.00
55679;BME280;41573;51.446;-2.018;2022-12-18T16:48:59;99939.41;;;6.97;100.00
55679;BME280;41573;51.446;-2.018;2022-12-18T16:51:26;99935.75;;;7.00;100.00
55679;BME280;41573;51.446;-2.018;2022-12-18T16:53:52;99942.75;;;7.01;100.00
55679;BME280;41573;51.446;-2.018;2022-12-18T16:56:18;99940.59;;;7.07;100.00
55679;BME280;41573;51.446;-2.018;2022-12-18T16:58:43;99940.78;;;7.04;100.00
55679;BME280;41573;51.446;-2.018;2022-12-18T17:01:10;99943.06;;;7.11;100.00
55679;BME280;41573;51.446;-2.018;2022-12-18T17:03:36;99941.03;;;7.16;100.00
55679;BME280;41573;51.446;-2.018;2022-12-18T17:06:05;99941.97;;;7.15;100.00
55679;BME280;41573;51.446;-2.018;2022-12-18T17:08:31;99947.13;;;7.18;100.00